createdAt,value
2019-05-02T00:01:13.172Z,100543.66
2019-05-02T00:03:43.404Z,100541.75
2019-05-02T00:06:14.518Z,100539.59
2019-05-02T00:08:44.562Z,100539.95
2019-05-02T00:11:15.686Z,100533.47
2019-05-02T00:13:45.626Z,100532.69
2019-05-02T00:16:15.631Z,100534.37
2019-05-02T00:18:45.811Z,100538.53
2019-05-02T00:21:16.437Z,100534.80
2019-05-02T00:23:46.414Z,100525.64
2019-05-02T00:26:16.377Z,100521.20
2019-05-02T00:28:48.018Z,100519.58
2019-05-02T00:31:21.288Z,100519.08
2019-05-02T00:33:51.696Z,100519.01
2019-05-02T00:36:21.600Z,100523.34
2019-05-02T00:38:51.582Z,100523.11
2019-05-02T00:41:22.724Z,100522.17
2019-05-02T00:43:53.389Z,100523.70
2019-05-02T00:46:23.429Z,100517.50
2019-05-02T00:48:59.644Z,100514.55
2019-05-02T00:51:28.894Z,100509.47
2019-05-02T00:53:59.413Z,100512.03
2019-05-02T00:56:29.207Z,100509.23
2019-05-02T00:59:02.238Z,100502.37
2019-05-02T01:02:00.102Z,100496.53
2019-05-02T01:04:32.941Z,100494.55
2019-05-02T01:07:04.571Z,100488.72
2019-05-02T01:09:34.689Z,100490.47
2019-05-02T01:12:08.488Z,100488.72
2019-05-02T01:14:36.183Z,100492.62
2019-05-02T01:17:06.235Z,100493.16
2019-05-02T01:19:36.471Z,100490.69
2019-05-02T01:22:10.712Z,100486.92
2019-05-02T01:24:39.887Z,100484.27
2019-05-02T01:27:16.279Z,100489.52
2019-05-02T01:30:01.708Z,100483.70
2019-05-02T01:32:51.758Z,100479.55
2019-05-02T01:35:48.215Z,100485.61
2019-05-02T01:38:21.202Z,100480.59
2019-05-02T01:40:53.642Z,100476.46
2019-05-02T01:43:26.129Z,100475.33
2019-05-02T01:45:56.103Z,100476.23
2019-05-02T01:48:26.773Z,100470.98
2019-05-02T01:50:56.610Z,100471.82
2019-05-02T01:53:29.442Z,100470.92
2019-05-02T01:55:59.369Z,100472.82
2019-05-02T01:58:29.629Z,100467.80
2019-05-02T02:00:59.450Z,100468.25
2019-05-02T02:03:29.278Z,100463.55
2019-05-02T02:06:02.882Z,100468.70
2019-05-02T02:08:32.554Z,100467.87
2019-05-02T02:11:04.042Z,100463.96
2019-05-02T02:13:36.559Z,100464.72
2019-05-02T02:16:05.975Z,100462.70
2019-05-02T02:18:40.453Z,100468.39
2019-05-02T02:21:33.063Z,100451.26
2019-05-02T02:24:07.680Z,100458.20
2019-05-02T02:26:36.677Z,100452.38
2019-05-02T02:29:07.893Z,100459.39
2019-05-02T02:31:39.866Z,100432.22
2019-05-02T02:34:09.644Z,100459.84
2019-05-02T02:36:39.543Z,100458.95
2019-05-02T02:39:14.478Z,100449.27
2019-05-02T02:41:45.229Z,100454.52
2019-05-02T02:44:22.400Z,100439.77
2019-05-02T02:46:52.877Z,100441.70
2019-05-02T02:49:24.505Z,100439.63
2019-05-02T02:51:58.269Z,100437.84
2019-05-02T02:54:26.390Z,100433.35
2019-05-02T02:56:56.241Z,100432.38
2019-05-02T02:59:28.032Z,100427.81
2019-05-02T03:02:09.104Z,100433.11
2019-05-02T03:04:30.043Z,100426.38
2019-05-02T03:07:00.741Z,100422.34
2019-05-02T03:09:30.627Z,100425.42
2019-05-02T03:12:18.596Z,100420.42
2019-05-02T03:14:53.517Z,100426.02
2019-05-02T03:17:26.571Z,100418.58
2019-05-02T03:20:01.115Z,100420.80
2019-05-02T03:22:26.883Z,100413.85
2019-05-02T03:24:57.563Z,100415.03
2019-05-02T03:27:29.768Z,100410.32
2019-05-02T03:29:59.429Z,100406.25
2019-05-02T03:32:34.403Z,100403.34
2019-05-02T03:35:01.655Z,100404.33
2019-05-02T03:37:32.927Z,100406.78
2019-05-02T03:40:02.777Z,100398.22
2019-05-02T03:42:43.873Z,100399.39
2019-05-02T03:45:05.370Z,100403.79
2019-05-02T03:47:43.016Z,100401.22
2019-05-02T03:50:09.915Z,100401.17
2019-05-02T03:52:43.928Z,100397.54
2019-05-02T03:55:12.555Z,100399.09
2019-05-02T03:57:42.983Z,100394.80
2019-05-02T04:00:20.974Z,100370.11
2019-05-02T04:02:45.673Z,100394.66
2019-05-02T04:05:16.063Z,100392.06
2019-05-02T04:07:47.453Z,100394.97
2019-05-02T04:10:35.530Z,100392.82
2019-05-02T04:13:05.658Z,100397.04
2019-05-02T04:15:37.580Z,100394.14
2019-05-02T04:18:08.395Z,100386.47
2019-05-02T04:20:43.642Z,100390.45
2019-05-02T04:23:12.450Z,100391.77
2019-05-02T04:25:42.809Z,100383.52
2019-05-02T04:28:14.356Z,100380.47
2019-05-02T04:30:45.137Z,100387.72
2019-05-02T04:33:16.951Z,100383.23
2019-05-02T04:35:46.928Z,100388.81
2019-05-02T04:38:21.268Z,100385.89
2019-05-02T04:40:50.026Z,100379.08
2019-05-02T04:43:20.839Z,100388.08
2019-05-02T04:45:56.083Z,100385.89
2019-05-02T04:48:22.298Z,100382.04
2019-05-02T04:50:59.675Z,100384.62
2019-05-02T04:53:25.918Z,100378.14
2019-05-02T04:56:01.610Z,100382.13
2019-05-02T04:58:33.480Z,100378.14
2019-05-02T05:01:01.927Z,100376.80
2019-05-02T05:03:31.392Z,100377.16
2019-05-02T05:06:07.087Z,100378.05
2019-05-02T05:08:33.789Z,100377.39
2019-05-02T05:11:04.012Z,100376.23
2019-05-02T05:13:33.895Z,100374.27
2019-05-02T05:16:08.599Z,100375.29
2019-05-02T05:18:37.776Z,100374.66
2019-05-02T05:21:10.572Z,100373.14
2019-05-02T05:24:10.327Z,100353.14
2019-05-02T05:26:43.016Z,100373.64
2019-05-02T05:29:14.001Z,100384.08
2019-05-02T05:31:44.594Z,100384.52
2019-05-02T05:34:14.477Z,100381.12
2019-05-02T05:36:44.275Z,100385.97
2019-05-02T05:39:14.168Z,100381.93
2019-05-02T05:41:50.853Z,100382.20
2019-05-02T05:44:18.044Z,100380.86
2019-05-02T05:46:49.467Z,100382.70
2019-05-02T05:49:21.728Z,100377.84
2019-05-02T05:51:54.397Z,100381.75
2019-05-02T05:54:22.398Z,100376.95
2019-05-02T05:56:52.527Z,100376.59
2019-05-02T05:59:27.348Z,100381.53
2019-05-02T06:01:53.941Z,100378.27
2019-05-02T06:04:30.131Z,100377.58
2019-05-02T06:06:59.575Z,100367.67
2019-05-02T06:09:31.270Z,100371.12
2019-05-02T06:11:59.629Z,100371.92
2019-05-02T06:14:29.410Z,100373.89
2019-05-02T06:16:59.274Z,100367.61
2019-05-02T06:19:30.056Z,100372.55
2019-05-02T06:22:00.644Z,100363.83
2019-05-02T06:24:33.630Z,100372.96
2019-05-02T06:27:02.534Z,100367.63
2019-05-02T06:29:32.451Z,100370.52
2019-05-02T06:32:03.536Z,100362.66
2019-05-02T06:34:33.442Z,100364.85
2019-05-02T06:37:03.278Z,100366.84
2019-05-02T06:39:33.352Z,100362.11
2019-05-02T06:42:03.530Z,100361.66
2019-05-02T06:44:33.923Z,100359.86
2019-05-02T06:47:04.487Z,100349.13
2019-05-02T06:49:34.666Z,100352.80
2019-05-02T06:52:06.463Z,100342.15
2019-05-02T06:54:37.110Z,100343.87
2019-05-02T06:57:06.932Z,100341.68
2019-05-02T06:59:37.069Z,100337.95
2019-05-02T07:02:07.680Z,100335.96
2019-05-02T07:04:37.802Z,100343.97
2019-05-02T07:07:08.010Z,100335.80
2019-05-02T07:09:40.822Z,100333.25
2019-05-02T07:12:14.579Z,100331.89
2019-05-02T07:14:41.346Z,100329.64
2019-05-02T07:17:32.119Z,100334.31
2019-05-02T07:20:04.077Z,100334.11
2019-05-02T07:22:38.614Z,100327.30
2019-05-02T07:25:08.716Z,100331.23
2019-05-02T07:27:39.316Z,100335.44
2019-05-02T07:30:12.117Z,100337.62
2019-05-02T07:32:42.039Z,100322.10
2019-05-02T07:35:12.310Z,100324.75
2019-05-02T07:37:44.048Z,100325.07
2019-05-02T07:40:16.997Z,100325.66
2019-05-02T07:42:46.258Z,100334.80
2019-05-02T07:45:16.579Z,100331.27
2019-05-02T07:47:46.451Z,100333.91
2019-05-02T07:50:16.387Z,100328.94
2019-05-02T07:52:46.254Z,100333.58
2019-05-02T07:55:16.372Z,100322.58
2019-05-02T07:57:46.116Z,100328.93
2019-05-02T08:00:17.870Z,100329.19
2019-05-02T08:02:47.740Z,100320.41
2019-05-02T08:05:22.242Z,100323.38
2019-05-02T08:07:53.495Z,100321.62
2019-05-02T08:10:23.986Z,100314.17
2019-05-02T08:12:53.358Z,100322.42
2019-05-02T08:15:24.687Z,100319.20
2019-05-02T08:17:55.216Z,100317.89
2019-05-02T08:20:25.577Z,100321.33
2019-05-02T08:22:55.688Z,100316.48
2019-05-02T08:25:25.504Z,100314.80
2019-05-02T08:28:04.566Z,100322.30
2019-05-02T08:30:40.633Z,100315.93
2019-05-02T08:33:09.620Z,100319.47
2019-05-02T08:35:39.579Z,100313.96
2019-05-02T08:38:12.487Z,100317.92
2019-05-02T08:40:42.447Z,100306.14
2019-05-02T08:43:12.629Z,100317.91
2019-05-02T08:45:44.026Z,100298.00
2019-05-02T08:48:14.198Z,100314.90
2019-05-02T08:50:44.524Z,100317.18
2019-05-02T08:53:19.977Z,100323.95
2019-05-02T08:55:46.712Z,100317.02
2019-05-02T08:58:16.696Z,100324.50
2019-05-02T09:00:47.282Z,100319.47
2019-05-02T09:03:17.718Z,100326.30
2019-05-02T09:05:47.712Z,100326.08
2019-05-02T09:08:17.552Z,100316.37
2019-05-02T09:10:47.407Z,100328.59
2019-05-02T09:13:26.457Z,100328.11
2019-05-02T09:15:51.529Z,100325.64
2019-05-02T09:18:24.015Z,100322.12
2019-05-02T09:20:56.610Z,100328.42
2019-05-02T09:23:27.490Z,100317.00
2019-05-02T09:25:56.960Z,100316.11
2019-05-02T09:28:27.110Z,100321.31
2019-05-02T09:30:57.553Z,100323.59
2019-05-02T09:33:28.647Z,100316.03
2019-05-02T09:35:58.571Z,100316.19
2019-05-02T09:38:28.449Z,100315.60
2019-05-02T09:40:58.216Z,100318.24
2019-05-02T09:43:29.388Z,100315.26
2019-05-02T09:45:59.759Z,100311.86
2019-05-02T09:48:29.629Z,100309.98
2019-05-02T09:51:04.628Z,100310.58
2019-05-02T09:53:32.414Z,100310.23
2019-05-02T09:56:02.703Z,100303.66
2019-05-02T09:58:32.519Z,100308.47
2019-05-02T10:01:11.884Z,100309.33
2019-05-02T10:03:42.389Z,100305.31
2019-05-02T10:06:13.949Z,100312.11
2019-05-02T10:08:46.565Z,100316.52
2019-05-02T10:11:17.023Z,100305.16
2019-05-02T10:13:48.296Z,100303.55
2019-05-02T10:16:23.520Z,100303.14
2019-05-02T10:18:52.310Z,100294.95
2019-05-02T10:21:22.994Z,100300.36
2019-05-02T10:23:58.976Z,100294.57
2019-05-02T10:26:25.039Z,100299.73
2019-05-02T10:28:55.099Z,100298.80
2019-05-02T10:31:27.529Z,100294.09
2019-05-02T10:33:56.643Z,100290.40
2019-05-02T10:36:27.720Z,100285.70
2019-05-02T10:38:59.376Z,100285.55
2019-05-02T10:41:31.754Z,100287.08
2019-05-02T10:44:02.201Z,100274.84
2019-05-02T10:46:38.065Z,100273.47
2019-05-02T10:49:14.644Z,100270.83
2019-05-02T10:51:49.409Z,100267.91
2019-05-02T10:54:16.488Z,100253.69
2019-05-02T10:56:46.508Z,100254.27
2019-05-02T10:59:16.660Z,100250.80
2019-05-02T11:02:02.874Z,100241.82
2019-05-02T11:04:34.370Z,100239.41
2019-05-02T11:07:04.666Z,100237.33
2019-05-02T11:09:34.540Z,100238.47
2019-05-02T11:12:06.256Z,100236.98
2019-05-02T11:14:44.254Z,100238.54
2019-05-02T11:17:43.462Z,100240.96
2019-05-02T11:20:13.975Z,100229.44
2019-05-02T11:22:44.023Z,100231.45
2019-05-02T11:25:14.367Z,100229.98
2019-05-02T11:27:44.224Z,100228.03
2019-05-02T11:30:16.741Z,100217.55
2019-05-02T11:32:47.622Z,100221.75
2019-05-02T11:35:17.826Z,100216.18
2019-05-02T11:37:47.644Z,100212.33
2019-05-02T11:40:18.324Z,100216.65
2019-05-02T11:42:48.647Z,100209.58
2019-05-02T11:45:18.575Z,100193.61
2019-05-02T11:47:48.368Z,100191.48
2019-05-02T11:50:18.343Z,100183.73
2019-05-02T11:52:48.661Z,100175.74
2019-05-02T11:55:19.087Z,100169.94
2019-05-02T11:57:52.346Z,100171.01
2019-05-02T12:00:22.403Z,100157.78
2019-05-02T12:03:02.210Z,100158.94
2019-05-02T12:05:39.176Z,100161.16
2019-05-02T12:08:09.499Z,100169.31
2019-05-02T12:10:39.618Z,100166.39
2019-05-02T12:13:11.916Z,100166.61
2019-05-02T12:15:44.038Z,100163.67
2019-05-02T12:18:12.941Z,100151.55
2019-05-02T12:20:42.947Z,100158.48
2019-05-02T12:23:13.192Z,100157.98
2019-05-02T12:25:43.577Z,100140.52
2019-05-02T12:28:13.463Z,100141.02
2019-05-02T12:30:43.786Z,100149.61
2019-05-02T12:33:14.212Z,100139.53
2019-05-02T12:35:44.519Z,100142.63
2019-05-02T12:38:14.417Z,100141.47
2019-05-02T12:40:44.407Z,100135.22
2019-05-02T12:43:14.376Z,100134.33
2019-05-02T12:45:44.331Z,100137.38
2019-05-02T12:48:14.196Z,100137.49
2019-05-02T12:50:44.206Z,100133.27
2019-05-02T12:53:15.693Z,100134.12
2019-05-02T12:55:45.711Z,100136.11
2019-05-02T12:58:15.565Z,100141.34
2019-05-02T13:00:45.722Z,100131.81
2019-05-02T13:03:36.388Z,100142.20
2019-05-02T13:06:06.579Z,100134.95
2019-05-02T13:08:48.994Z,100122.14
2019-05-02T13:11:46.859Z,100123.03
2019-05-02T13:14:20.074Z,100123.84
2019-05-02T13:16:55.518Z,100119.66
2019-05-02T13:19:36.520Z,100114.78
2019-05-02T13:22:02.450Z,100117.41
2019-05-02T13:24:35.468Z,100114.64
2019-05-02T13:27:07.595Z,100102.15
2019-05-02T13:29:38.370Z,100103.23
2019-05-02T13:32:18.942Z,100099.66
2019-05-02T13:35:22.156Z,100103.05
2019-05-02T13:37:53.501Z,100092.14
2019-05-02T13:40:27.214Z,100088.05
2019-05-02T13:42:57.000Z,100085.94
2019-05-02T13:45:44.606Z,100086.00
2019-05-02T13:48:14.404Z,100083.61
2019-05-02T13:50:44.256Z,100084.36
2019-05-02T13:53:14.213Z,100076.80
2019-05-02T13:55:53.447Z,100078.41
2019-05-02T13:58:29.066Z,100075.58
2019-05-02T14:03:28.434Z,100069.37
2019-05-02T14:05:58.293Z,100054.92
2019-05-02T14:08:46.481Z,100094.61
2019-05-02T14:11:34.005Z,100084.44
2019-05-02T14:14:06.033Z,100092.91
2019-05-02T14:16:36.041Z,100052.69
2019-05-02T14:19:07.107Z,100094.89
2019-05-02T14:21:37.193Z,100098.72
2019-05-02T14:24:07.231Z,100103.92
2019-05-02T14:26:38.258Z,100104.47
2019-05-02T14:29:12.613Z,100097.15
2019-05-02T14:31:39.885Z,100100.28
2019-05-02T14:34:35.572Z,100104.34
2019-05-02T14:37:05.507Z,100100.10
2019-05-02T14:39:36.199Z,100094.52
2019-05-02T14:42:07.541Z,100089.14
2019-05-02T14:45:01.220Z,100089.89
2019-05-02T14:47:10.103Z,100085.66
2019-05-02T14:49:42.917Z,100090.73
2019-05-02T14:52:14.300Z,100077.41
2019-05-02T14:54:47.880Z,100080.69
2019-05-02T14:57:25.511Z,100073.47
2019-05-02T14:59:50.216Z,100071.08
2019-05-02T15:02:47.558Z,100067.70
2019-05-02T15:05:12.948Z,100062.66
2019-05-02T15:07:43.046Z,100063.61
2019-05-02T15:10:14.399Z,100065.01
2019-05-02T15:12:44.387Z,100059.38
2019-05-02T15:15:14.404Z,100059.47
2019-05-02T15:17:44.643Z,100057.02
2019-05-02T15:20:15.362Z,100057.30
2019-05-02T15:22:45.515Z,100053.03
2019-05-02T15:25:17.926Z,100054.33
2019-05-02T15:27:49.995Z,100044.57
2019-05-02T15:30:19.505Z,100049.17
2019-05-02T15:33:02.781Z,100048.55
2019-05-02T15:35:57.354Z,100036.42
2019-05-02T15:38:28.224Z,100032.34
2019-05-02T15:40:59.427Z,100043.30
2019-05-02T15:43:31.680Z,100043.65
2019-05-02T15:46:02.088Z,100046.93
2019-05-02T15:48:33.133Z,100048.19
2019-05-02T15:51:06.122Z,100050.33
2019-05-02T15:53:48.475Z,100051.05
2019-05-02T15:56:20.285Z,100056.31
2019-05-02T15:58:48.093Z,100059.96
2019-05-02T16:01:36.693Z,100054.84
2019-05-02T16:04:08.980Z,100057.55
2019-05-02T16:06:38.870Z,100047.16
2019-05-02T16:09:09.358Z,100039.75
2019-05-02T16:11:43.314Z,100050.61
2019-05-02T16:14:12.907Z,100037.77
2019-05-02T16:16:45.217Z,100038.48
2019-05-02T16:19:23.162Z,100034.25
2019-05-02T16:21:59.555Z,100038.48
2019-05-02T16:24:29.370Z,100033.73
2019-05-02T16:26:59.182Z,100036.11
2019-05-02T16:29:29.509Z,100038.94
2019-05-02T16:32:18.355Z,100033.86
2019-05-02T16:34:56.425Z,100029.59
2019-05-02T16:37:26.490Z,100027.50
2019-05-02T16:39:56.550Z,100027.84
2019-05-02T16:42:26.361Z,100024.11
2019-05-02T16:44:56.607Z,100030.42
2019-05-02T16:47:26.491Z,100025.96
2019-05-02T16:49:56.674Z,100021.63
2019-05-02T16:52:27.062Z,100021.77
2019-05-02T16:54:56.941Z,100022.80
2019-05-02T16:57:27.200Z,100027.95
2019-05-02T17:00:01.544Z,100020.80
2019-05-02T17:02:29.258Z,100023.58
2019-05-02T17:05:00.258Z,100014.52
2019-05-02T17:08:10.586Z,100017.23
2019-05-02T17:10:47.373Z,100010.00
2019-05-02T17:13:14.524Z,100005.77
2019-05-02T17:15:44.366Z,100001.70
2019-05-02T17:18:17.885Z,99991.87
2019-05-02T17:20:46.910Z,99995.25
2019-05-02T17:23:17.661Z,99998.94
2019-05-02T17:25:47.587Z,100001.73
2019-05-02T17:28:17.639Z,99997.56
2019-05-02T17:30:47.493Z,99989.33
2019-05-02T17:33:17.488Z,99995.35
2019-05-02T17:35:52.314Z,99998.95
2019-05-02T17:38:27.907Z,99992.69
2019-05-02T17:40:54.132Z,99996.58
2019-05-02T17:43:23.050Z,100005.28
2019-05-02T17:45:52.970Z,100003.64
2019-05-02T17:48:23.120Z,100002.22
2019-05-02T17:51:08.958Z,99999.96
2019-05-02T17:53:41.085Z,99996.44
2019-05-02T17:56:13.112Z,100002.00
2019-05-02T17:58:47.433Z,100001.27
2019-05-02T18:01:19.107Z,100009.38
2019-05-02T18:03:49.051Z,100015.07
2019-05-02T18:06:30.794Z,100006.50
2019-05-02T18:08:55.119Z,100013.48
2019-05-02T18:11:22.997Z,100009.98
2019-05-02T18:13:52.914Z,100010.49
2019-05-02T18:16:23.274Z,100006.81
2019-05-02T18:18:53.250Z,100007.45
2019-05-02T18:21:26.908Z,100004.98
2019-05-02T18:23:57.285Z,100005.92
2019-05-02T18:26:27.965Z,100000.81
2019-05-02T18:29:02.760Z,100011.27
2019-05-02T18:31:34.814Z,99979.05
2019-05-02T18:34:03.646Z,100015.44
2019-05-02T18:36:33.627Z,100020.48
2019-05-02T18:39:05.363Z,100026.27
2019-05-02T18:41:41.728Z,100043.05
2019-05-02T18:44:09.226Z,100064.34
2019-05-02T18:46:41.613Z,100066.80
2019-05-02T18:49:12.350Z,100074.09
2019-05-02T18:51:42.436Z,100069.77
2019-05-02T18:54:12.532Z,100076.22
2019-05-02T18:56:49.537Z,100074.64
2019-05-02T18:59:19.781Z,100086.33
2019-05-02T19:01:47.404Z,100087.59
2019-05-02T19:04:18.755Z,100088.11
2019-05-02T19:06:48.673Z,100082.95
2019-05-02T19:09:24.918Z,100045.28
2019-05-02T19:11:52.254Z,100083.33
2019-05-02T19:14:25.951Z,100083.95
2019-05-02T19:16:58.061Z,100078.04
2019-05-02T19:19:27.318Z,100074.51
2019-05-02T19:21:58.365Z,100074.26
2019-05-02T19:24:32.917Z,100070.87
2019-05-02T19:27:02.086Z,100071.98
2019-05-02T19:29:32.559Z,100074.65
2019-05-02T19:32:02.596Z,100079.05
2019-05-02T19:34:33.415Z,100076.39
2019-05-02T19:37:04.654Z,100079.53
2019-05-02T19:39:39.105Z,100081.69
2019-05-02T19:42:07.770Z,100081.69
2019-05-02T19:44:37.810Z,100085.73
2019-05-02T19:47:15.684Z,100082.56
2019-05-02T19:49:42.553Z,100088.00
2019-05-02T19:52:12.893Z,100091.51
2019-05-02T19:54:43.858Z,100099.59
2019-05-02T19:57:17.132Z,100102.86
2019-05-02T19:59:46.628Z,100107.91
2019-05-02T20:02:16.639Z,100102.71
2019-05-02T20:04:46.758Z,100105.63
2019-05-02T20:07:17.088Z,100111.16
2019-05-02T20:09:48.511Z,100115.95
2019-05-02T20:12:18.540Z,100108.77
2019-05-02T20:14:49.485Z,100115.07
2019-05-02T20:17:22.159Z,100111.55
2019-05-02T20:19:57.888Z,100112.05
2019-05-02T20:22:26.125Z,100125.02
2019-05-02T20:25:00.239Z,100123.98
2019-05-02T20:27:28.907Z,100126.38
2019-05-02T20:29:58.973Z,100119.84
2019-05-02T20:32:28.862Z,100122.60
2019-05-02T20:34:59.102Z,100131.14
2019-05-02T20:37:29.377Z,100131.38
2019-05-02T20:39:59.324Z,100145.23
2019-05-02T20:42:32.070Z,100141.90
2019-05-02T20:45:02.399Z,100141.61
2019-05-02T20:47:33.612Z,100146.88
2019-05-02T20:50:05.923Z,100147.83
2019-05-02T20:52:35.540Z,100151.55
2019-05-02T20:55:06.333Z,100156.15
2019-05-02T20:57:36.187Z,100148.63
2019-05-02T21:00:07.564Z,100158.25
2019-05-02T21:02:39.358Z,100161.58
2019-05-02T21:05:18.746Z,100161.56
2019-05-02T21:08:01.787Z,100155.95
2019-05-02T21:10:34.578Z,100155.64
2019-05-02T21:13:04.760Z,100155.08
2019-05-02T21:15:34.763Z,100160.91
2019-05-02T21:18:04.727Z,100153.81
2019-05-02T21:20:34.734Z,100155.43
2019-05-02T21:23:04.956Z,100169.73
2019-05-02T21:25:35.322Z,100167.92
2019-05-02T21:28:05.707Z,100168.88
2019-05-02T21:30:35.704Z,100172.08
2019-05-02T21:33:05.699Z,100173.95
2019-05-02T21:35:35.670Z,100174.12
2019-05-02T21:38:05.393Z,100174.97
2019-05-02T21:40:35.265Z,100170.41
2019-05-02T21:43:05.231Z,100170.14
2019-05-02T21:45:35.213Z,100175.84
2019-05-02T21:48:05.061Z,100172.89
2019-05-02T21:50:40.458Z,100175.36
2019-05-02T21:53:35.256Z,100187.59
2019-05-02T21:56:17.441Z,100183.20
2019-05-02T21:59:04.353Z,100194.94
2019-05-02T22:01:35.936Z,100186.25
2019-05-02T22:04:06.147Z,100194.14
2019-05-02T22:06:36.174Z,100195.39
2019-05-02T22:09:08.545Z,100197.95
2019-05-02T22:11:39.129Z,100202.06
2019-05-02T22:14:09.380Z,100198.56
2019-05-02T22:16:39.184Z,100192.77
2019-05-02T22:19:09.502Z,100195.84
2019-05-02T22:21:39.468Z,100195.75
2019-05-02T22:24:13.690Z,100194.67
2019-05-02T22:26:43.353Z,100197.98
2019-05-02T22:29:12.697Z,100195.33
2019-05-02T22:31:43.087Z,100200.48
2019-05-02T22:34:13.730Z,100196.27
2019-05-02T22:36:44.222Z,100200.33
2019-05-02T22:39:38.565Z,100202.38
2019-05-02T22:42:08.569Z,100206.64
2019-05-02T22:44:38.906Z,100203.07
2019-05-02T22:47:09.152Z,100204.83
2019-05-02T22:49:38.997Z,100209.48
2019-05-02T22:52:09.471Z,100219.20
2019-05-02T22:54:41.565Z,100215.56
2019-05-02T22:57:11.580Z,100213.72
2019-05-02T22:59:43.028Z,100212.50
2019-05-02T23:02:13.349Z,100215.01
2019-05-02T23:04:44.661Z,100219.41
2019-05-02T23:07:15.146Z,100218.73
2019-05-02T23:09:47.280Z,100228.48
2019-05-02T23:12:18.493Z,100220.32
2019-05-02T23:14:48.436Z,100225.67
2019-05-02T23:17:18.549Z,100228.91
2019-05-02T23:19:48.439Z,100229.36
2019-05-02T23:22:18.655Z,100231.38
2019-05-02T23:25:11.662Z,100237.12
2019-05-02T23:27:45.571Z,100243.27
2019-05-02T23:30:17.959Z,100236.58
2019-05-02T23:32:47.745Z,100235.69
2019-05-02T23:35:17.636Z,100244.34
2019-05-02T23:37:47.468Z,100242.06
2019-05-02T23:40:17.711Z,100237.89
2019-05-02T23:42:48.099Z,100244.56
2019-05-02T23:45:18.327Z,100243.53
2019-05-02T23:47:48.216Z,100241.39
2019-05-02T23:50:18.159Z,100238.52
2019-05-02T23:52:47.911Z,100240.95
2019-05-02T23:55:17.807Z,100247.84
2019-05-02T23:57:47.803Z,100246.45
